Terminal Aerodrome Forecast
Issued by NWS Cleveland, OH

Home | Current Version | Previous Version | Graphics & Text | Print | Product List | Glossary Off
Versions: 1 2 3 4 5 6 7 8 9 10 11 12 13 14 15 16 17 18

000
FTUS41 KCLE 292127 AAB
TAFCAK
TAF AMD
KCAK 292127Z 2921/3018 06007KT P6SM OVC006
     FM300600 08008KT 1/2SM FG OVC003
     FM301000 13008KT 4SM BR OVC003
     FM301400 17012KT 6SM HZ OVC003
     FM301600 20015G25KT P6SM OVC015
     FM301700 21015G25KT P6SM BKN050=

USA.gov is the U.S. government's official web portal to all federal, state and local government web resources and services.